Time;durP1;ratioP1;P1;durP2;ratioP2;P2;SDS_P1;SDS_P2;PMS_P1;PMS_P2;Temp;Humidity;BMP_temperature;BMP_pressure;BME280_temperature;BME280_humidity;BME280_pressure;Samples;Min_cycle;Max_cycle;Signal;HPM_P1;HPM_P2
2022/06/14 00:00:54;;;;;;;2.15;1.42;;;15.60;96.80;;;;;;5010026;28;20683;-72
2022/06/14 00:03:24;;;;;;;5.32;1.40;;;15.40;97.10;;;;;;5012187;28;20253;-72
2022/06/14 00:05:52;;;;;;;3.65;1.73;;;15.40;97.40;;;;;;5010473;28;20288;-72
2022/06/14 00:08:21;;;;;;;5.57;1.40;;;15.20;97.60;;;;;;5009896;28;20633;-72
2022/06/14 00:10:50;;;;;;;5.43;1.67;;;15.20;97.80;;;;;;5011768;28;20205;-72
2022/06/14 00:13:20;;;;;;;1.75;1.20;;;15.20;98.20;;;;;;5013090;28;20221;-71
2022/06/14 00:15:47;;;;;;;4.63;1.42;;;15.20;98.30;;;;;;5014377;28;20229;-72
2022/06/14 00:18:17;;;;;;;2.65;1.30;;;15.10;98.40;;;;;;5013100;28;20197;-72
2022/06/14 00:20:47;;;;;;;2.55;1.20;;;15.10;99.00;;;;;;5013989;28;20201;-72
2022/06/14 00:23:16;;;;;;;1.80;1.42;;;15.00;98.60;;;;;;5013571;28;20198;-72
2022/06/14 00:25:45;;;;;;;1.60;1.23;;;14.80;98.90;;;;;;5014008;28;20206;-73
2022/06/14 00:28:15;;;;;;;3.00;1.58;;;14.80;99.30;;;;;;5013664;28;20747;-72
2022/06/14 00:30:47;;;;;;;3.67;1.80;;;14.80;99.30;;;;;;5014090;28;20287;-72
2022/06/14 00:33:15;;;;;;;3.05;1.30;;;14.80;99.70;;;;;;5012580;28;20246;-72
2022/06/14 00:35:44;;;;;;;2.33;1.50;;;14.80;99.30;;;;;;5013832;28;20247;-71
2022/06/14 00:38:13;;;;;;;2.97;1.13;;;14.70;99.30;;;;;;5013865;28;20296;-70
2022/06/14 00:40:49;;;;;;;2.20;1.00;;;14.70;99.70;;;;;;5013881;28;20255;-72
2022/06/14 00:43:19;;;;;;;1.58;1.48;;;14.70;99.90;;;;;;5012513;28;20328;-72
2022/06/14 00:46:22;;;;;;;3.05;1.30;;;14.70;99.90;;;;;;5013900;28;20225;-72
2022/06/14 00:48:59;;;;;;;1.20;0.93;;;14.60;99.90;;;;;;4933492;29;20239;-72
2022/06/14 00:51:32;;;;;;;2.28;1.15;;;14.60;99.90;;;;;;4933651;29;20298;-72
2022/06/14 00:54:07;;;;;;;1.80;1.02;;;14.40;99.90;;;;;;4971763;28;20287;-72
2022/06/14 00:56:41;;;;;;;1.35;1.08;;;14.40;99.90;;;;;;5013461;28;20205;-73
2022/06/14 00:59:13;;;;;;;1.45;1.05;;;14.30;99.90;;;;;;5012859;28;20241;-72
2022/06/14 01:01:44;;;;;;;2.10;1.20;;;14.40;99.90;;;;;;5013425;28;20760;-72
2022/06/14 01:04:17;;;;;;;1.45;1.08;;;14.50;99.90;;;;;;5015367;28;20210;-72
2022/06/14 01:06:52;;;;;;;1.77;1.45;;;14.50;99.90;;;;;;5013030;28;20206;-72
2022/06/14 01:09:26;;;;;;;4.47;1.23;;;14.50;99.90;;;;;;5012578;28;20229;-72
2022/06/14 01:11:59;;;;;;;1.40;1.20;;;14.50;99.90;;;;;;5013384;28;20206;-72
2022/06/14 01:14:34;;;;;;;3.65;1.52;;;14.40;99.90;;;;;;5013298;28;20202;-72
2022/06/14 01:17:04;;;;;;;3.15;1.50;;;14.30;99.90;;;;;;5013529;28;20209;-71
2022/06/14 01:19:33;;;;;;;2.47;1.20;;;14.20;99.90;;;;;;5006822;28;20225;-72
2022/06/14 01:22:28;;;;;;;1.98;1.10;;;14.10;99.90;;;;;;5011968;28;20202;-72
2022/06/14 01:24:57;;;;;;;2.40;1.20;;;14.10;99.90;;;;;;5013378;28;20614;-72
2022/06/14 01:27:27;;;;;;;2.58;1.17;;;14.00;99.90;;;;;;5012996;28;20822;-72
2022/06/14 01:30:03;;;;;;;6.57;1.55;;;14.00;99.90;;;;;;5012643;28;20217;-72
2022/06/14 01:32:35;;;;;;;2.10;1.30;;;13.90;99.90;;;;;;5012262;28;20466;-72
2022/06/14 01:35:09;;;;;;;1.50;1.30;;;13.90;99.90;;;;;;5012726;28;20228;-72
2022/06/14 01:37:39;;;;;;;2.25;1.80;;;13.90;99.90;;;;;;5009020;28;20604;-72
2022/06/14 01:40:08;;;;;;;3.13;1.98;;;13.90;99.90;;;;;;5006495;28;20221;-72
2022/06/14 01:43:02;;;;;;;2.95;1.25;;;13.90;99.90;;;;;;5011284;28;20259;-72
2022/06/14 01:45:35;;;;;;;1.70;1.20;;;13.90;99.90;;;;;;5012752;28;20261;-72
2022/06/14 01:48:13;;;;;;;3.83;1.38;;;13.80;99.90;;;;;;5012240;28;20224;-72
2022/06/14 01:53:44;;;;;;;3.33;1.42;;;13.70;99.90;;;;;;5011117;28;20237;-72
2022/06/14 01:56:18;;;;;;;2.47;1.27;;;13.70;99.90;;;;;;5012437;28;20209;-72
2022/06/14 01:58:58;;;;;;;1.60;1.30;;;13.70;99.90;;;;;;5011939;28;20244;-72
2022/06/14 02:01:31;;;;;;;2.25;1.40;;;13.70;99.90;;;;;;5012864;28;20236;-72
2022/06/14 02:07:02;;;;;;;2.83;1.40;;;13.70;99.90;;;;;;5012933;28;20224;-72
2022/06/14 02:09:39;;;;;;;1.90;1.40;;;13.60;99.90;;;;;;5012755;28;20647;-72
2022/06/14 02:12:12;;;;;;;7.13;1.35;;;13.60;99.90;;;;;;5011584;28;20259;-72
2022/06/14 02:14:48;;;;;;;2.63;1.30;;;13.60;99.90;;;;;;5006915;28;20193;-72
2022/06/14 02:17:25;;;;;;;5.43;1.85;;;13.60;99.90;;;;;;5007108;28;20201;-72
2022/06/14 02:20:01;;;;;;;1.40;1.10;;;13.40;99.90;;;;;;5012029;28;20229;-72
2022/06/14 02:22:33;;;;;;;2.30;1.20;;;13.40;99.90;;;;;;5011764;28;20701;-72
2022/06/14 02:25:07;;;;;;;3.67;1.58;;;13.40;99.90;;;;;;5011838;28;20240;-72
2022/06/14 02:27:40;;;;;;;2.25;1.20;;;13.40;99.90;;;;;;5011592;28;20788;-71
2022/06/14 02:30:12;;;;;;;2.60;1.38;;;13.30;99.90;;;;;;5011571;28;20231;-72
2022/06/14 02:32:45;;;;;;;2.67;1.27;;;13.30;99.90;;;;;;5011303;28;20209;-72
2022/06/14 02:35:19;;;;;;;2.72;1.45;;;13.30;99.90;;;;;;5010518;28;20252;-72
2022/06/14 02:37:55;;;;;;;2.13;1.10;;;13.30;99.90;;;;;;5009388;28;20197;-71
2022/06/14 02:40:30;;;;;;;3.55;1.30;;;13.30;99.90;;;;;;5011358;28;20240;-72
2022/06/14 02:43:04;;;;;;;4.35;1.88;;;13.20;99.90;;;;;;5010971;28;20258;-72
2022/06/14 02:45:36;;;;;;;2.55;1.10;;;13.10;99.90;;;;;;5011411;28;20547;-72
2022/06/14 02:48:09;;;;;;;3.17;1.35;;;13.00;99.90;;;;;;5010678;28;20205;-70
2022/06/14 02:50:43;;;;;;;3.10;1.92;;;13.00;99.90;;;;;;5011018;28;20209;-72
2022/06/14 02:53:15;;;;;;;3.28;1.20;;;13.00;99.90;;;;;;5010889;28;20739;-72
2022/06/14 02:55:49;;;;;;;1.83;1.20;;;12.90;99.90;;;;;;5011593;28;20240;-72
2022/06/14 02:58:24;;;;;;;2.08;1.45;;;12.90;99.90;;;;;;5011302;28;20201;-72
2022/06/14 03:00:57;;;;;;;3.88;1.40;;;12.90;99.90;;;;;;5010965;28;20233;-73
2022/06/14 03:03:32;;;;;;;4.00;1.75;;;12.90;99.90;;;;;;5015480;28;20204;-72
2022/06/14 03:06:06;;;;;;;1.65;1.20;;;12.90;99.90;;;;;;5011047;28;20220;-72
2022/06/14 03:08:41;;;;;;;5.13;1.58;;;12.90;99.90;;;;;;5010507;28;20787;-72
2022/06/14 03:11:23;;;;;;;1.55;1.17;;;12.70;99.90;;;;;;5011094;28;20271;-72
2022/06/14 03:13:57;;;;;;;4.28;1.58;;;12.60;99.90;;;;;;5010849;28;20214;-72
2022/06/14 03:16:30;;;;;;;1.65;1.30;;;12.60;99.90;;;;;;5005082;28;20255;-72
2022/06/14 03:19:08;;;;;;;2.58;1.20;;;12.70;99.90;;;;;;5011014;28;20283;-72
2022/06/14 03:21:43;;;;;;;4.40;1.48;;;12.70;99.90;;;;;;5010993;28;20676;-72
2022/06/14 03:24:27;;;;;;;3.70;1.45;;;12.70;99.90;;;;;;5007510;28;20551;-70
2022/06/14 03:27:07;;;;;;;1.60;1.50;;;12.70;99.90;;;;;;5004523;28;20221;-72
2022/06/14 03:29:46;;;;;;;1.65;1.30;;;12.80;99.90;;;;;;5010955;28;20229;-70
2022/06/14 03:32:17;;;;;;;3.35;1.52;;;12.80;99.90;;;;;;5010141;28;20300;-71
2022/06/14 03:34:49;;;;;;;5.68;1.83;;;12.80;99.90;;;;;;5012694;28;20725;-72
2022/06/14 03:37:17;;;;;;;1.90;1.40;;;12.80;99.90;;;;;;5010465;28;20676;-72
2022/06/14 03:39:51;;;;;;;3.45;1.30;;;12.70;99.90;;;;;;5010628;28;20329;-72
2022/06/14 03:42:21;;;;;;;1.95;1.15;;;12.70;99.90;;;;;;5010181;28;21020;-72
2022/06/14 03:44:50;;;;;;;2.97;1.23;;;12.60;99.90;;;;;;5010853;28;20271;-72
2022/06/14 03:47:22;;;;;;;2.05;1.40;;;12.70;99.90;;;;;;5014610;28;20271;-72
2022/06/14 03:49:53;;;;;;;2.95;1.77;;;12.70;99.90;;;;;;5014417;28;20311;-72
2022/06/14 03:52:46;;;;;;;2.17;1.30;;;12.60;99.90;;;;;;5013393;28;20213;-72
2022/06/14 03:55:30;;;;;;;2.85;1.52;;;12.60;99.90;;;;;;5014343;28;20849;-72
2022/06/14 03:58:15;;;;;;;2.63;1.40;;;12.50;99.90;;;;;;5014654;28;20205;-72
2022/06/14 04:00:50;;;;;;;4.47;1.67;;;12.50;99.90;;;;;;4996178;28;20202;-72
2022/06/14 04:03:43;;;;;;;2.90;1.65;;;12.60;99.90;;;;;;4994000;28;20201;-72
2022/06/14 04:06:26;;;;;;;1.98;1.27;;;12.70;99.90;;;;;;4991450;28;20601;-72
2022/06/14 04:09:02;;;;;;;3.25;1.60;;;12.80;99.90;;;;;;4994583;28;20280;-72
2022/06/14 04:11:46;;;;;;;1.38;1.20;;;12.80;99.90;;;;;;4994865;28;20667;-72
2022/06/14 04:14:26;;;;;;;5.22;1.75;;;12.80;99.90;;;;;;4994025;28;20264;-72
2022/06/14 04:17:03;;;;;;;4.80;1.60;;;12.90;99.90;;;;;;4994502;28;20314;-70
2022/06/14 04:19:40;;;;;;;1.45;1.35;;;12.90;99.90;;;;;;4994421;28;20308;-72
2022/06/14 04:22:18;;;;;;;1.55;1.20;;;12.90;99.90;;;;;;4993657;28;20293;-72
2022/06/14 04:24:52;;;;;;;2.28;1.30;;;12.90;99.90;;;;;;4988257;28;20233;-72
2022/06/14 04:27:25;;;;;;;1.58;1.48;;;12.90;99.90;;;;;;4994363;28;20277;-72
2022/06/14 04:30:00;;;;;;;2.45;1.77;;;12.80;99.90;;;;;;4994466;28;20765;-72
2022/06/14 04:32:35;;;;;;;3.75;1.60;;;12.90;99.90;;;;;;4993594;28;20206;-72
2022/06/14 04:35:07;;;;;;;2.83;1.40;;;12.80;99.90;;;;;;4996827;28;20229;-72
2022/06/14 04:37:39;;;;;;;1.73;1.35;;;12.80;99.90;;;;;;4994092;28;20257;-72
2022/06/14 04:40:11;;;;;;;2.20;1.42;;;12.80;99.90;;;;;;4994145;28;20317;-72
2022/06/14 04:42:44;;;;;;;2.17;1.60;;;12.70;99.90;;;;;;4992726;28;20273;-72
2022/06/14 04:45:16;;;;;;;6.97;2.30;;;12.80;99.90;;;;;;4994316;28;20284;-72
2022/06/14 04:47:49;;;;;;;3.75;1.80;;;12.80;99.90;;;;;;4994044;28;20393;-72
2022/06/14 04:50:22;;;;;;;3.33;1.35;;;12.80;99.90;;;;;;4987620;28;20222;-71
2022/06/14 04:52:54;;;;;;;3.30;1.50;;;12.90;99.90;;;;;;4993424;28;20256;-72
2022/06/14 04:55:26;;;;;;;1.83;1.20;;;12.90;99.90;;;;;;4993458;28;20208;-73
2022/06/14 04:57:57;;;;;;;1.90;1.40;;;13.00;99.90;;;;;;4992864;28;20202;-72
2022/06/14 05:00:31;;;;;;;2.90;1.55;;;13.20;99.90;;;;;;5011519;28;20237;-72
2022/06/14 05:03:03;;;;;;;6.47;1.70;;;13.30;99.90;;;;;;5012584;28;20262;-71
2022/06/14 05:05:35;;;;;;;2.75;1.67;;;13.40;99.90;;;;;;5012448;28;20675;-72
2022/06/14 05:08:10;;;;;;;3.03;1.63;;;13.50;99.90;;;;;;5011101;28;20248;-71
2022/06/14 05:10:44;;;;;;;2.78;1.80;;;13.60;99.90;;;;;;5013421;28;20320;-72
2022/06/14 05:13:21;;;;;;;4.93;2.15;;;13.60;99.90;;;;;;5012577;28;20236;-72
2022/06/14 05:15:55;;;;;;;1.90;1.40;;;13.70;99.90;;;;;;5013079;28;20380;-71
2022/06/14 05:18:36;;;;;;;3.17;1.55;;;13.70;99.90;;;;;;5007737;28;20218;-72
2022/06/14 05:21:09;;;;;;;1.50;1.23;;;13.80;99.90;;;;;;5012851;28;20264;-71
2022/06/14 05:23:43;;;;;;;2.25;1.45;;;13.90;99.90;;;;;;5012424;28;20205;-71
2022/06/14 05:26:19;;;;;;;2.95;1.50;;;13.90;99.90;;;;;;5012182;28;20678;-72
2022/06/14 05:28:59;;;;;;;3.88;1.50;;;14.00;99.90;;;;;;5012822;28;20224;-72
2022/06/14 05:31:37;;;;;;;1.70;1.35;;;14.20;99.90;;;;;;5006376;28;20233;-72
2022/06/14 05:34:10;;;;;;;7.55;1.58;;;14.30;99.90;;;;;;5012528;28;20201;-72
2022/06/14 05:36:41;;;;;;;2.80;1.60;;;14.40;99.90;;;;;;5009160;28;20612;-72
2022/06/14 05:39:15;;;;;;;4.30;1.60;;;14.60;99.90;;;;;;5012150;28;20738;-72
2022/06/14 05:41:47;;;;;;;3.92;1.67;;;14.70;99.90;;;;;;5012589;28;20301;-72
2022/06/14 05:44:21;;;;;;;3.40;1.65;;;14.70;99.90;;;;;;5012082;28;20259;-72
2022/06/14 05:46:53;;;;;;;3.40;1.35;;;14.80;99.90;;;;;;5011858;28;20220;-72
2022/06/14 05:49:24;;;;;;;3.75;1.67;;;14.90;99.90;;;;;;5012399;28;20221;-72
2022/06/14 05:51:57;;;;;;;4.63;1.85;;;15.10;99.90;;;;;;5006171;28;20201;-72
2022/06/14 05:54:30;;;;;;;2.30;1.13;;;15.20;99.90;;;;;;5011688;28;20629;-72
2022/06/14 05:57:03;;;;;;;3.38;1.30;;;15.30;99.90;;;;;;5012337;28;20288;-72
2022/06/14 05:59:35;;;;;;;2.60;1.33;;;15.50;99.90;;;;;;5012054;28;20272;-72
2022/06/14 06:02:13;;;;;;;3.60;1.90;;;15.70;99.90;;;;;;5011842;28;20259;-72
2022/06/14 06:04:46;;;;;;;4.80;1.50;;;15.80;99.90;;;;;;5012302;28;20645;-72
2022/06/14 06:07:25;;;;;;;5.70;1.58;;;15.90;99.90;;;;;;5011866;28;20608;-72
2022/06/14 06:10:00;;;;;;;3.95;1.75;;;16.20;99.90;;;;;;5011626;28;20221;-71
2022/06/14 06:12:32;;;;;;;6.78;1.75;;;16.40;99.90;;;;;;5005054;28;20208;-72
2022/06/14 06:15:05;;;;;;;6.47;1.80;;;16.50;99.90;;;;;;5006276;28;20674;-72
2022/06/14 06:17:37;;;;;;;8.73;1.80;;;16.60;99.90;;;;;;4994221;28;20198;-72
2022/06/14 06:20:13;;;;;;;4.00;1.80;;;16.80;99.90;;;;;;5011867;28;20225;-72
2022/06/14 06:22:47;;;;;;;1.90;0.95;;;16.90;99.90;;;;;;5011044;28;20197;-73
2022/06/14 06:25:20;;;;;;;4.32;1.50;;;16.90;99.90;;;;;;5011662;28;20232;-72
2022/06/14 06:27:52;;;;;;;3.17;1.08;;;16.90;99.90;;;;;;5012404;28;20221;-73
2022/06/14 06:30:26;;;;;;;2.40;1.02;;;17.10;99.90;;;;;;5011720;28;20264;-73
2022/06/14 06:32:57;;;;;;;3.00;1.58;;;17.10;99.90;;;;;;5011030;28;20201;-73
2022/06/14 06:35:33;;;;;;;3.70;1.48;;;17.20;99.90;;;;;;5011164;28;20263;-70
2022/06/14 06:38:09;;;;;;;3.03;1.85;;;17.30;99.90;;;;;;5011127;28;20197;-73
2022/06/14 06:41:49;;;;;;;2.88;1.60;;;17.30;99.90;;;;;;5006525;28;20681;-72
2022/06/14 06:43:28;;;;;;;4.40;1.90;;;17.50;99.90;;;;;;5010655;28;20209;-73
2022/06/14 06:45:59;;;;;;;4.88;2.20;;;17.60;99.50;;;;;;5011313;28;20209;-70
2022/06/14 06:48:39;;;;;;;3.00;1.40;;;17.60;99.90;;;;;;5011240;28;20221;-73
2022/06/14 06:51:13;;;;;;;7.18;1.80;;;17.80;99.50;;;;;;5010740;28;20209;-73
2022/06/14 06:53:47;;;;;;;3.30;1.40;;;17.90;99.90;;;;;;5010744;28;20625;-72
2022/06/14 06:56:19;;;;;;;3.63;1.70;;;17.90;99.80;;;;;;5011301;28;20240;-73
2022/06/14 06:58:52;;;;;;;3.72;1.35;;;18.00;99.50;;;;;;5010957;28;20257;-73
2022/06/14 07:01:24;;;;;;;2.28;1.30;;;18.10;99.00;;;;;;5011378;28;20263;-73
2022/06/14 07:04:01;;;;;;;3.65;1.38;;;18.20;99.40;;;;;;5010650;28;20288;-72
2022/06/14 07:06:31;;;;;;;3.80;1.65;;;18.30;99.20;;;;;;5010020;28;20739;-73
2022/06/14 07:09:03;;;;;;;2.95;1.52;;;18.50;99.90;;;;;;5010872;28;20229;-72
2022/06/14 07:11:39;;;;;;;2.67;1.40;;;18.70;99.50;;;;;;5011319;28;20225;-72
2022/06/14 07:14:13;;;;;;;4.13;1.40;;;18.80;98.80;;;;;;5010569;28;20204;-73
2022/06/14 07:16:44;;;;;;;5.40;1.95;;;18.80;98.10;;;;;;5010853;28;20205;-73
2022/06/14 07:19:25;;;;;;;3.45;2.05;;;18.90;98.50;;;;;;5010929;28;20278;-73
2022/06/14 07:21:58;;;;;;;4.60;1.55;;;18.90;98.40;;;;;;5010183;28;20284;-74
2022/06/14 07:24:30;;;;;;;2.22;1.30;;;19.00;99.10;;;;;;5011063;28;20663;-74
2022/06/14 07:27:03;;;;;;;5.00;1.80;;;19.20;98.60;;;;;;5010937;28;20631;-73
2022/06/14 07:29:37;;;;;;;10.20;2.38;;;19.10;98.30;;;;;;5010968;28;20282;-74
2022/06/14 07:32:10;;;;;;;2.70;1.30;;;19.30;98.70;;;;;;5010315;28;20899;-73
2022/06/14 07:34:42;;;;;;;4.07;1.40;;;19.40;97.30;;;;;;5010970;28;20240;-73
2022/06/14 07:37:18;;;;;;;1.63;1.23;;;19.50;97.20;;;;;;5009165;28;20654;-73
2022/06/14 07:39:55;;;;;;;4.93;1.65;;;19.60;97.20;;;;;;5008414;28;20228;-74
2022/06/14 07:42:30;;;;;;;2.60;1.90;;;19.70;96.80;;;;;;5005317;28;20271;-73
2022/06/14 07:45:05;;;;;;;4.15;1.52;;;19.80;96.40;;;;;;5010799;28;20266;-73
2022/06/14 07:47:43;;;;;;;3.13;1.42;;;19.90;96.80;;;;;;5010880;28;20272;-73
2022/06/14 07:50:17;;;;;;;5.63;2.05;;;20.10;96.40;;;;;;5010534;28;20228;-74
2022/06/14 07:52:48;;;;;;;4.70;1.70;;;20.30;96.30;;;;;;5009815;28;20201;-72
2022/06/14 07:55:22;;;;;;;5.05;1.63;;;20.20;96.00;;;;;;5010526;28;20284;-74
2022/06/14 07:57:54;;;;;;;4.50;1.58;;;20.20;96.00;;;;;;4993173;28;20667;-73
2022/06/14 08:03:21;;;;;;;7.93;1.65;;;20.40;96.50;;;;;;5003620;28;20209;-73
2022/06/14 08:05:54;;;;;;;3.38;1.75;;;20.60;96.00;;;;;;5004998;28;20212;-73
2022/06/14 08:08:29;;;;;;;3.10;1.70;;;20.80;95.60;;;;;;5009040;28;20217;-74
2022/06/14 08:11:02;;;;;;;3.88;1.70;;;20.90;95.50;;;;;;5010317;28;20287;-73
2022/06/14 08:13:39;;;;;;;4.43;1.67;;;21.10;96.10;;;;;;5009993;28;20667;-74
2022/06/14 08:16:10;;;;;;;5.53;2.10;;;21.40;94.70;;;;;;5010157;28;20225;-73
2022/06/14 08:18:44;;;;;;;7.35;2.25;;;21.60;93.90;;;;;;5010115;28;20221;-75
2022/06/14 08:21:20;;;;;;;6.28;2.10;;;21.90;95.10;;;;;;5010107;28;20289;-74
2022/06/14 08:23:52;;;;;;;4.72;1.95;;;22.00;95.30;;;;;;5009856;28;20205;-74
2022/06/14 08:26:26;;;;;;;4.82;1.70;;;22.10;94.00;;;;;;5009875;28;20259;-77
2022/06/14 08:29:01;;;;;;;5.15;1.55;;;22.20;94.10;;;;;;5010422;28;20261;-76
2022/06/14 08:31:35;;;;;;;6.85;1.80;;;22.30;93.70;;;;;;5010366;28;20204;-72
2022/06/14 08:34:10;;;;;;;5.03;1.55;;;22.20;93.10;;;;;;5012740;28;20204;-74
2022/06/14 08:36:47;;;;;;;13.38;3.97;;;22.20;93.40;;;;;;5013690;28;20275;-72
2022/06/14 08:39:21;;;;;;;3.45;2.03;;;22.20;93.10;;;;;;5013917;28;20244;-73
2022/06/14 08:41:59;;;;;;;6.30;1.70;;;22.40;92.80;;;;;;5013148;28;20201;-73
2022/06/14 08:44:34;;;;;;;5.32;1.92;;;22.70;92.70;;;;;;5013730;28;20205;-74
2022/06/14 08:47:32;;;;;;;4.32;1.80;;;22.90;91.50;;;;;;5013759;28;20254;-73
2022/06/14 08:50:10;;;;;;;3.38;1.50;;;23.30;90.70;;;;;;5013569;28;20229;-73
2022/06/14 08:53:22;;;;;;;4.30;1.70;;;23.60;89.60;;;;;;5012591;28;20232;-74
2022/06/14 08:56:05;;;;;;;2.40;1.27;;;23.70;88.60;;;;;;4995926;28;20263;-74
2022/06/14 08:58:57;;;;;;;2.65;1.15;;;23.70;89.30;;;;;;5012464;28;20380;-73
2022/06/14 09:01:37;;;;;;;5.07;1.77;;;23.80;88.30;;;;;;5013416;28;20328;-74
2022/06/14 09:04:35;;;;;;;4.60;1.65;;;24.20;91.10;;;;;;5012633;28;20205;-73
2022/06/14 09:07:23;;;;;;;3.33;1.95;;;24.30;87.30;;;;;;5013027;28;20635;-74
2022/06/14 09:10:29;;;;;;;1.88;1.67;;;24.20;85.80;;;;;;5012167;28;20312;-74
2022/06/14 09:13:21;;;;;;;4.15;2.10;;;24.20;87.00;;;;;;5011958;28;20255;-74
2022/06/14 09:16:23;;;;;;;3.50;2.00;;;24.30;85.90;;;;;;5013340;28;20291;-74
2022/06/14 09:19:01;;;;;;;4.50;1.50;;;24.30;84.80;;;;;;5013114;28;20701;-73
2022/06/14 09:21:40;;;;;;;5.57;1.20;;;24.50;85.00;;;;;;5012417;28;20304;-73
2022/06/14 09:24:16;;;;;;;3.78;1.55;;;24.50;83.00;;;;;;5012495;28;20296;-74
2022/06/14 09:27:04;;;;;;;3.00;1.02;;;24.50;83.80;;;;;;5012921;28;20600;-74
2022/06/14 09:30:01;;;;;;;3.22;1.60;;;24.70;83.50;;;;;;5012877;28;20225;-73
2022/06/14 09:33:13;;;;;;;3.33;1.40;;;24.80;84.00;;;;;;5011434;28;20197;-73
2022/06/14 09:36:09;;;;;;;1.33;1.20;;;24.90;82.30;;;;;;5012454;28;20236;-71
2022/06/14 09:39:03;;;;;;;2.55;1.00;;;25.30;80.00;;;;;;5008771;28;20576;-73
2022/06/14 09:41:58;;;;;;;5.47;1.70;;;25.30;78.60;;;;;;5012460;28;20216;-74
2022/06/14 09:44:59;;;;;;;3.75;1.85;;;25.60;78.80;;;;;;5011992;28;20659;-73
2022/06/14 09:47:52;;;;;;;2.08;1.88;;;25.40;81.70;;;;;;4999483;28;20769;-74
2022/06/14 09:50:50;;;;;;;2.30;1.17;;;25.80;80.50;;;;;;5012434;28;20600;-74
2022/06/14 09:53:56;;;;;;;1.48;1.15;;;26.10;78.30;;;;;;5011351;28;20285;-74
2022/06/14 09:56:54;;;;;;;4.50;1.40;;;26.20;74.20;;;;;;5012370;28;20201;-73
2022/06/14 09:59:50;;;;;;;6.97;1.92;;;26.20;75.50;;;;;;5013176;28;20244;-73
2022/06/14 10:02:34;;;;;;;2.70;1.58;;;26.40;73.50;;;;;;5011702;28;20693;-74
2022/06/14 10:05:33;;;;;;;5.93;1.73;;;26.10;74.30;;;;;;5012357;28;20209;-74
2022/06/14 10:08:32;;;;;;;4.10;1.60;;;26.50;74.40;;;;;;5011377;28;20668;-73
2022/06/14 10:11:24;;;;;;;2.55;1.10;;;27.10;73.70;;;;;;5010189;28;20201;-74
2022/06/14 10:14:19;;;;;;;3.17;1.48;;;27.40;70.60;;;;;;5005755;28;20632;-73
2022/06/14 10:17:12;;;;;;;2.97;1.45;;;27.90;70.50;;;;;;5012034;28;20211;-73
2022/06/14 10:19:56;;;;;;;7.18;1.42;;;28.10;69.20;;;;;;4989309;28;20325;-73
2022/06/14 10:22:49;;;;;;;6.57;1.38;;;28.30;67.90;;;;;;5011148;28;20225;-72
2022/06/14 10:25:25;;;;;;;3.65;1.30;;;28.60;67.40;;;;;;5005585;28;20209;-72
2022/06/14 10:28:12;;;;;;;5.45;1.30;;;28.80;67.30;;;;;;5011964;28;20232;-74
2022/06/14 10:31:06;;;;;;;3.38;1.10;;;27.90;66.30;;;;;;5011946;28;20259;-74
2022/06/14 10:33:45;;;;;;;3.22;2.00;;;27.40;68.90;;;;;;5010844;28;20201;-74
2022/06/14 10:36:36;;;;;;;1.33;1.23;;;27.40;67.90;;;;;;5011612;28;20247;-74
2022/06/14 10:39:50;;;;;;;2.20;1.50;;;26.70;68.80;;;;;;5009127;28;20248;-71
2022/06/14 10:42:24;;;;;;;4.80;1.27;;;27.30;66.60;;;;;;5011190;28;20883;-74
2022/06/14 10:44:57;;;;;;;2.78;1.23;;;27.90;69.20;;;;;;5011544;28;20259;-73
2022/06/14 10:47:42;;;;;;;1.67;1.10;;;27.90;67.70;;;;;;5011539;28;20264;-74
2022/06/14 10:50:34;;;;;;;1.73;1.17;;;28.30;69.20;;;;;;5011403;28;20283;-73
2022/06/14 10:53:31;;;;;;;1.58;1.10;;;28.70;65.60;;;;;;5010267;28;20189;-72
2022/06/14 10:56:30;;;;;;;5.20;1.48;;;28.70;64.60;;;;;;5009484;28;20267;-74
2022/06/14 10:59:36;;;;;;;3.15;1.27;;;28.80;67.10;;;;;;5011022;28;20308;-74
2022/06/14 11:02:18;;;;;;;3.80;1.58;;;28.70;63.80;;;;;;4966294;28;20216;-74
2022/06/14 11:04:58;;;;;;;1.83;1.27;;;28.50;64.40;;;;;;5011226;28;20201;-73
2022/06/14 11:07:55;;;;;;;2.40;1.23;;;28.60;62.80;;;;;;5010883;28;20752;-74
2022/06/14 11:10:47;;;;;;;2.30;0.90;;;28.80;64.10;;;;;;5011067;28;20319;-74
2022/06/14 11:13:23;;;;;;;2.03;1.27;;;29.10;61.90;;;;;;5009891;28;20194;-74
2022/06/14 11:15:57;;;;;;;3.65;1.30;;;29.30;61.40;;;;;;5011219;28;20228;-72
2022/06/14 11:19:03;;;;;;;1.67;1.00;;;29.60;60.90;;;;;;5010768;28;20230;-74
2022/06/14 11:21:50;;;;;;;1.05;0.95;;;29.40;60.00;;;;;;4972022;28;20247;-74
2022/06/14 11:24:25;;;;;;;1.77;1.00;;;29.10;59.00;;;;;;5010583;28;20522;-74
2022/06/14 11:27:01;;;;;;;5.28;1.75;;;28.80;58.40;;;;;;5010790;28;20621;-73
2022/06/14 11:29:45;;;;;;;3.67;1.40;;;28.70;59.80;;;;;;5010923;28;20216;-73
2022/06/14 11:32:18;;;;;;;1.40;0.98;;;28.90;60.50;;;;;;5010425;28;20236;-74
2022/06/14 11:35:01;;;;;;;2.80;1.20;;;29.20;57.60;;;;;;5010247;28;20205;-73
2022/06/14 11:38:00;;;;;;;2.03;1.13;;;29.40;58.10;;;;;;5007661;28;20292;-74
2022/06/14 11:40:30;;;;;;;2.45;1.27;;;29.60;58.70;;;;;;5008067;28;20253;-74
2022/06/14 11:43:28;;;;;;;2.17;1.40;;;29.40;57.40;;;;;;5010252;28;20296;-73
2022/06/14 11:46:02;;;;;;;5.60;1.20;;;29.60;59.20;;;;;;5010900;28;20209;-73
2022/06/14 11:48:36;;;;;;;1.42;1.20;;;29.50;57.70;;;;;;5010344;28;20237;-73
2022/06/14 11:51:15;;;;;;;3.25;0.90;;;29.30;57.10;;;;;;5010686;28;20225;-73
2022/06/14 11:54:15;;;;;;;3.63;1.40;;;29.50;58.30;;;;;;5009626;28;20208;-73
2022/06/14 11:56:52;;;;;;;4.05;1.58;;;30.10;56.80;;;;;;5007078;28;20725;-73
2022/06/14 11:59:48;;;;;;;4.03;1.25;;;30.60;55.40;;;;;;5009809;28;20256;-73
2022/06/14 12:02:37;;;;;;;2.53;1.00;;;30.90;55.90;;;;;;5004729;28;20256;-73
2022/06/14 12:05:12;;;;;;;1.95;0.90;;;31.50;56.80;;;;;;5010564;28;20224;-73
2022/06/14 12:07:42;;;;;;;2.15;1.15;;;31.60;55.30;;;;;;5012685;28;20295;-74
2022/06/14 12:10:47;;;;;;;2.13;1.13;;;32.00;55.00;;;;;;5014407;28;20316;-74
2022/06/14 12:13:29;;;;;;;3.20;0.97;;;32.20;54.40;;;;;;5013398;28;20665;-73
2022/06/14 12:16:04;;;;;;;1.63;0.90;;;32.40;54.90;;;;;;5011578;28;20739;-74
2022/06/14 12:18:37;;;;;;;1.93;1.10;;;31.80;53.20;;;;;;5013982;28;21000;-74
2022/06/14 12:21:31;;;;;;;2.75;1.58;;;31.00;52.90;;;;;;5010356;28;20603;-73
2022/06/14 12:24:03;;;;;;;3.90;1.40;;;30.70;52.90;;;;;;5007780;28;20695;-73
2022/06/14 12:26:37;;;;;;;2.50;1.03;;;31.10;56.10;;;;;;5011142;28;20288;-73
2022/06/14 12:29:12;;;;;;;2.13;1.20;;;31.40;53.20;;;;;;5014028;28;20996;-73
2022/06/14 12:31:51;;;;;;;1.50;1.15;;;31.90;54.50;;;;;;5014068;28;20668;-74
2022/06/14 12:34:24;;;;;;;1.50;1.20;;;31.60;53.70;;;;;;5013316;28;20236;-73
2022/06/14 12:37:06;;;;;;;2.22;0.95;;;30.70;53.80;;;;;;5013212;28;20677;-74
2022/06/14 12:39:38;;;;;;;1.52;1.00;;;30.60;53.50;;;;;;5013769;28;20279;-74
2022/06/14 12:42:15;;;;;;;1.15;1.05;;;30.90;52.80;;;;;;5013288;28;20552;-73
2022/06/14 12:44:53;;;;;;;1.20;1.03;;;31.30;52.70;;;;;;5013842;28;20228;-73
2022/06/14 12:47:25;;;;;;;2.60;1.20;;;30.80;53.50;;;;;;5013674;28;20961;-73
2022/06/14 12:49:57;;;;;;;1.40;1.05;;;31.20;53.40;;;;;;5013706;28;20757;-73
2022/06/14 12:52:31;;;;;;;1.40;0.90;;;31.60;52.20;;;;;;5006173;28;20670;-73
2022/06/14 12:55:03;;;;;;;1.55;1.08;;;32.10;52.70;;;;;;5013753;28;20689;-73
2022/06/14 12:57:49;;;;;;;5.47;1.10;;;32.50;52.40;;;;;;5013406;28;20290;-73
2022/06/14 13:00:24;;;;;;;3.30;1.33;;;32.80;51.50;;;;;;5013222;28;20705;-73
2022/06/14 13:02:57;;;;;;;1.60;1.20;;;32.80;53.30;;;;;;5012825;28;20706;-73
2022/06/14 13:05:29;;;;;;;3.70;1.37;;;33.10;51.50;;;;;;5013403;28;20670;-73
2022/06/14 13:08:14;;;;;;;3.63;1.57;;;32.30;53.60;;;;;;5012832;28;20690;-74
2022/06/14 13:11:08;;;;;;;4.20;1.40;;;31.10;53.30;;;;;;5010269;28;20659;-73
2022/06/14 13:13:59;;;;;;;2.07;1.20;;;31.50;54.50;;;;;;5012608;28;21214;-74
2022/06/14 13:16:41;;;;;;;4.40;1.20;;;31.20;53.60;;;;;;5013264;28;20616;-73
2022/06/14 13:19:15;;;;;;;1.65;1.50;;;31.30;53.90;;;;;;5009074;28;20728;-73
2022/06/14 13:22:09;;;;;;;3.38;1.42;;;31.60;56.30;;;;;;5012986;28;20207;-74
2022/06/14 13:24:45;;;;;;;2.03;1.10;;;32.30;53.40;;;;;;5013012;28;20225;-72
2022/06/14 13:27:29;;;;;;;1.87;1.00;;;31.60;51.60;;;;;;5012998;28;21090;-71
2022/06/14 13:30:06;;;;;;;2.43;1.20;;;31.80;53.10;;;;;;5012720;28;20705;-74
2022/06/14 13:32:45;;;;;;;5.90;1.40;;;32.20;51.80;;;;;;5011389;28;20659;-73
2022/06/14 13:35:39;;;;;;;2.90;1.10;;;32.20;52.20;;;;;;5012739;28;20619;-74
2022/06/14 13:38:11;;;;;;;2.30;1.10;;;32.30;51.80;;;;;;5011017;28;20719;-73
2022/06/14 13:40:45;;;;;;;2.60;1.33;;;33.00;51.80;;;;;;5012600;28;20968;-73
2022/06/14 13:43:27;;;;;;;1.87;1.13;;;33.70;50.00;;;;;;5012185;28;20950;-73
2022/06/14 13:46:05;;;;;;;3.23;1.20;;;34.10;49.90;;;;;;5006499;28;21172;-73
2022/06/14 13:48:40;;;;;;;1.83;1.00;;;33.70;49.90;;;;;;5006408;28;20663;-74
2022/06/14 13:51:25;;;;;;;2.00;1.00;;;33.30;50.60;;;;;;5012491;28;20675;-74
2022/06/14 13:54:03;;;;;;;4.70;0.90;;;33.50;50.70;;;;;;5011886;28;20611;-73